createdAt,value
2022-07-28T00:04:03.059Z,97552.78
2022-07-28T00:14:05.544Z,97554.41
2022-07-28T00:24:07.934Z,97551.47
2022-07-28T00:34:10.389Z,97546.44
2022-07-28T00:44:13.031Z,97538.78
2022-07-28T00:54:15.691Z,97542.78
2022-07-28T01:04:18.788Z,97543.03
2022-07-28T01:14:32.766Z,97539.06
2022-07-28T01:25:00.737Z,97543.00
2022-07-28T01:35:32.349Z,97537.00
2022-07-28T01:45:35.402Z,97524.91
2022-07-28T01:55:39.527Z,97528.88
2022-07-28T02:05:43.844Z,97514.00
2022-07-28T02:15:47.076Z,97513.12
2022-07-28T02:25:51.675Z,97510.09
2022-07-28T02:35:57.583Z,97497.47
2022-07-28T02:46:10.718Z,97491.19
2022-07-28T02:56:13.295Z,97490.28
2022-07-28T03:06:19.905Z,97499.94
2022-07-28T03:16:30.588Z,97496.53
2022-07-28T03:26:43.680Z,97512.94
2022-07-28T03:36:50.373Z,97522.31
2022-07-28T03:46:52.650Z,97513.47
2022-07-28T03:56:54.930Z,97521.44
2022-07-28T04:06:57.172Z,97533.41
2022-07-28T04:16:59.395Z,97536.47
2022-07-28T04:27:01.740Z,97532.19
2022-07-28T04:37:04.435Z,97543.56
2022-07-28T04:47:07.443Z,97543.19
2022-07-28T04:57:12.726Z,97548.97
2022-07-28T05:07:15.348Z,97543.53
2022-07-28T05:17:17.510Z,97546.22
2022-07-28T05:27:19.748Z,97540.34
2022-07-28T05:37:22.304Z,97546.37
2022-07-28T05:47:24.503Z,97552.63
2022-07-28T05:57:26.777Z,97545.09
2022-07-28T06:07:43.036Z,97536.16
2022-07-28T06:17:47.440Z,97532.31
2022-07-28T06:27:51.529Z,97526.75
2022-07-28T06:37:53.959Z,97528.16
2022-07-28T06:47:57.401Z,97534.66
2022-07-28T06:57:59.679Z,97527.75
2022-07-28T07:08:04.009Z,97531.50
2022-07-28T07:18:06.612Z,97535.59
2022-07-28T07:28:08.859Z,97536.81
2022-07-28T07:38:11.882Z,97539.47
2022-07-28T07:48:14.285Z,97537.59
2022-07-28T07:58:16.758Z,97526.56
2022-07-28T08:08:19.167Z,97523.59
2022-07-28T08:18:21.717Z,97517.50
2022-07-28T08:28:24.604Z,97526.09
2022-07-28T08:38:27.637Z,97523.09
2022-07-28T08:48:37.446Z,97525.03
2022-07-28T08:58:40.336Z,97518.09
2022-07-28T09:08:43.749Z,97515.78
2022-07-28T09:18:46.057Z,97527.62
2022-07-28T09:28:54.313Z,97508.63
2022-07-28T09:38:57.775Z,97513.19
2022-07-28T09:49:01.508Z,97512.12
2022-07-28T09:59:08.758Z,97516.94
2022-07-28T10:09:14.921Z,97511.97
2022-07-28T10:19:17.649Z,97493.75
2022-07-28T10:29:23.688Z,97475.47
2022-07-28T10:39:41.189Z,97480.53
2022-07-28T10:49:43.912Z,97469.09
2022-07-28T11:00:25.847Z,97457.34
2022-07-28T11:10:30.970Z,97448.44
2022-07-28T11:20:52.992Z,97449.84
2022-07-28T11:30:59.409Z,97444.56
2022-07-28T11:41:01.888Z,97437.88
2022-07-28T11:51:05.490Z,97419.22
2022-07-28T12:01:18.157Z,97429.53
2022-07-28T12:11:21.552Z,97418.78
2022-07-28T12:21:46.618Z,97408.03
2022-07-28T12:32:00.045Z,97400.72
2022-07-28T12:42:10.465Z,97394.34
2022-07-28T12:52:22.033Z,97390.72
2022-07-28T13:02:37.926Z,97382.56
2022-07-28T13:12:40.650Z,97366.03
2022-07-28T13:22:45.991Z,97367.69
2022-07-28T13:32:48.816Z,97358.75
2022-07-28T13:42:53.358Z,97335.84
2022-07-28T13:52:59.651Z,97341.59
2022-07-28T14:03:02.861Z,97342.91
2022-07-28T14:13:05.846Z,97339.69
2022-07-28T14:23:09.224Z,97325.13
2022-07-28T14:33:12.200Z,97311.28
2022-07-28T14:43:14.824Z,97307.06
2022-07-28T14:53:17.520Z,97302.59
2022-07-28T15:03:20.399Z,97311.72
2022-07-28T15:13:23.955Z,97296.56
2022-07-28T15:23:26.933Z,97301.38
2022-07-28T15:33:29.419Z,97299.59
2022-07-28T15:43:34.983Z,97317.13
2022-07-28T15:53:38.150Z,97313.97
2022-07-28T16:03:43.755Z,97310.06
2022-07-28T16:13:48.015Z,97303.37
2022-07-28T16:23:52.493Z,97295.81
2022-07-28T16:33:57.762Z,97293.03
2022-07-28T16:44:01.533Z,97277.34
2022-07-28T16:54:04.208Z,97298.81
2022-07-28T17:04:07.823Z,97317.84
2022-07-28T17:14:11.907Z,97340.75
2022-07-28T17:24:15.202Z,97333.87
2022-07-28T17:34:18.509Z,97337.41
2022-07-28T17:44:21.914Z,97352.47
2022-07-28T17:54:25.340Z,97349.47
2022-07-28T18:04:27.715Z,97349.41
2022-07-28T18:14:30.787Z,97349.44
2022-07-28T18:24:33.203Z,97356.81
2022-07-28T18:34:37.170Z,97356.97
2022-07-28T18:44:39.721Z,97350.66
2022-07-28T18:54:43.852Z,97359.41
2022-07-28T19:04:47.757Z,97358.69
2022-07-28T19:14:50.004Z,97367.44
2022-07-28T19:24:55.487Z,97387.53
2022-07-28T19:35:18.909Z,97407.28
2022-07-28T19:45:21.548Z,97422.75
2022-07-28T19:55:24.571Z,97437.97
2022-07-28T20:05:28.195Z,97467.81
2022-07-28T20:15:31.175Z,97476.41
2022-07-28T20:25:33.632Z,97484.75
2022-07-28T20:35:36.965Z,97510.44
2022-07-28T20:45:39.154Z,97513.16
2022-07-28T20:55:41.467Z,97509.50
2022-07-28T21:05:44.395Z,97526.53
2022-07-28T21:15:47.080Z,97542.13
2022-07-28T21:25:51.253Z,97547.44
2022-07-28T21:35:53.976Z,97553.28
2022-07-28T21:45:56.515Z,97553.41
2022-07-28T21:55:59.208Z,97557.84
2022-07-28T22:06:01.977Z,97563.03
2022-07-28T22:16:05.374Z,97571.88
2022-07-28T22:26:08.210Z,97570.16
2022-07-28T22:36:10.656Z,97576.22
2022-07-28T22:46:13.242Z,97574.66
2022-07-28T23:06:36.955Z,97574.88
2022-07-28T23:16:39.371Z,97558.34
2022-07-28T23:26:41.858Z,97549.69
2022-07-28T23:36:45.371Z,97541.34
2022-07-28T23:46:47.872Z,97556.78
2022-07-28T23:56:52.287Z,97550.34
